createdAt,value
2018-06-27T00:01:17.212Z,18.25
2018-06-27T00:02:16.351Z,18.26
2018-06-27T00:04:21.281Z,18.26
2018-06-27T00:05:16.250Z,18.25
2018-06-27T00:06:24.448Z,18.29
2018-06-27T00:08:11.295Z,18.26
2018-06-27T00:11:04.736Z,18.31
2018-06-27T00:12:02.907Z,18.23
2018-06-27T00:14:27.852Z,18.22
2018-06-27T00:15:20.092Z,18.20
2018-06-27T00:19:29.455Z,18.03
2018-06-27T00:20:18.781Z,18.07
2018-06-27T00:24:11.568Z,18.03
2018-06-27T00:25:03.901Z,17.94
2018-06-27T00:26:58.736Z,18.00
2018-06-27T00:27:57.737Z,17.95
2018-06-27T00:30:28.242Z,17.97
2018-06-27T00:31:04.064Z,18.01
2018-06-27T00:32:05.279Z,17.97
2018-06-27T00:33:07.239Z,18.03
2018-06-27T00:34:05.243Z,17.92
2018-06-27T00:35:03.244Z,17.98
2018-06-27T00:37:48.545Z,17.90
2018-06-27T00:38:35.327Z,17.90
2018-06-27T00:40:27.580Z,17.80
2018-06-27T00:41:27.656Z,17.78
2018-06-27T00:42:29.704Z,17.76
2018-06-27T00:43:29.583Z,17.71
2018-06-27T00:44:27.536Z,17.70
2018-06-27T00:45:28.044Z,17.65
2018-06-27T00:46:27.434Z,17.65
2018-06-27T00:47:27.554Z,17.65
2018-06-27T00:48:28.027Z,17.65
2018-06-27T00:49:27.502Z,17.65
2018-06-27T00:50:29.570Z,17.60
2018-06-27T00:51:27.436Z,17.57
2018-06-27T00:52:27.502Z,17.63
2018-06-27T00:53:27.375Z,17.59
2018-06-27T00:54:27.433Z,17.52
2018-06-27T00:55:27.364Z,17.45
2018-06-27T00:56:27.472Z,17.49
2018-06-27T00:57:27.301Z,17.38
2018-06-27T00:58:27.393Z,17.51
2018-06-27T01:00:27.343Z,17.34
2018-06-27T01:01:27.346Z,17.42
2018-06-27T01:02:27.267Z,17.45
2018-06-27T01:03:30.636Z,17.41
2018-06-27T01:04:29.183Z,17.24
2018-06-27T01:05:27.372Z,17.41
2018-06-27T01:06:27.254Z,17.36
2018-06-27T01:07:27.356Z,17.41
2018-06-27T01:08:29.735Z,17.39
2018-06-27T01:09:27.132Z,17.44
2018-06-27T01:10:29.233Z,17.41
2018-06-27T01:12:29.184Z,17.48
2018-06-27T01:13:27.312Z,17.45
2018-06-27T01:14:27.257Z,17.54
2018-06-27T01:15:27.108Z,17.44
2018-06-27T01:16:27.197Z,17.38
2018-06-27T01:17:27.259Z,17.41
2018-06-27T01:18:27.186Z,17.48
2018-06-27T01:19:27.233Z,17.41
2018-06-27T01:20:27.145Z,17.41
2018-06-27T01:24:59.996Z,17.49
2018-06-27T01:25:34.057Z,17.49
2018-06-27T01:27:59.133Z,17.42
2018-06-27T01:28:36.431Z,17.51
2018-06-27T01:31:32.696Z,17.65
2018-06-27T01:34:13.958Z,17.56
2018-06-27T01:35:06.804Z,17.60
2018-06-27T01:42:27.111Z,17.54
2018-06-27T01:43:24.009Z,17.57
2018-06-27T01:45:27.889Z,17.59
2018-06-27T01:46:17.157Z,17.65
2018-06-27T01:48:11.316Z,17.68
2018-06-27T01:49:10.654Z,17.70
2018-06-27T01:50:10.649Z,17.71
2018-06-27T01:51:21.191Z,17.80
2018-06-27T01:52:11.157Z,17.86
2018-06-27T01:53:31.638Z,17.89
2018-06-27T01:54:12.284Z,17.94
2018-06-27T01:55:10.621Z,17.95
2018-06-27T01:57:50.838Z,18.00
2018-06-27T02:09:36.256Z,18.03
2018-06-27T02:13:04.750Z,18.01
2018-06-27T02:13:46.742Z,18.04
2018-06-27T02:23:52.416Z,18.15
2018-06-27T02:24:25.426Z,18.11
2018-06-27T02:26:38.875Z,18.18
2018-06-27T02:27:37.034Z,18.20
2018-06-27T02:30:31.053Z,18.49
2018-06-27T02:31:30.566Z,18.53
2018-06-27T02:32:31.478Z,18.60
2018-06-27T02:33:32.296Z,18.65
2018-06-27T02:34:33.367Z,18.77
2018-06-27T02:35:31.385Z,18.70
2018-06-27T02:36:33.438Z,18.81
2018-06-27T02:37:30.473Z,18.98
2018-06-27T02:38:35.441Z,19.08
2018-06-27T02:39:32.429Z,19.26
2018-06-27T02:40:31.397Z,19.14
2018-06-27T02:41:30.427Z,19.31
2018-06-27T02:42:53.277Z,19.34
2018-06-27T02:43:30.516Z,19.47
2018-06-27T02:44:32.877Z,19.56
2018-06-27T02:45:30.340Z,19.59
2018-06-27T02:47:30.351Z,19.84
2018-06-27T02:48:32.939Z,19.94
2018-06-27T02:49:30.911Z,19.89
2018-06-27T02:50:51.403Z,19.88
2018-06-27T02:51:30.402Z,20.02
2018-06-27T02:53:32.949Z,20.16
2018-06-27T02:54:30.293Z,20.28
2018-06-27T02:56:30.295Z,20.40
2018-06-27T02:57:34.987Z,20.32
2018-06-27T02:58:30.264Z,20.32
2018-06-27T02:59:34.963Z,20.32
2018-06-27T03:00:30.268Z,20.37
2018-06-27T03:03:43.804Z,20.50
2018-06-27T03:19:55.138Z,20.37
2018-06-27T03:20:55.745Z,20.36
2018-06-27T03:21:55.865Z,20.41
2018-06-27T03:22:55.765Z,20.44
2018-06-27T03:23:55.639Z,20.52
2018-06-27T03:24:55.030Z,20.55
2018-06-27T03:25:55.713Z,20.66
2018-06-27T03:26:54.880Z,20.78
2018-06-27T03:27:54.846Z,20.92
2018-06-27T03:28:54.982Z,20.81
2018-06-27T03:29:54.838Z,21.02
2018-06-27T04:02:51.718Z,20.85
2018-06-27T04:03:51.558Z,20.92
2018-06-27T04:22:35.818Z,21.67
2018-06-27T04:41:28.545Z,22.08
2018-06-27T04:47:59.001Z,22.02
2018-06-27T04:48:29.019Z,21.95
2018-06-27T04:55:56.997Z,22.02
2018-06-27T04:56:58.308Z,22.08
2018-06-27T08:30:48.282Z,48.37
2018-06-27T08:31:30.295Z,48.18
2018-06-27T08:35:02.801Z,47.91
2018-06-27T08:37:02.742Z,48.55
2018-06-27T08:43:53.629Z,48.94
2018-06-27T08:44:42.901Z,48.63
2018-06-27T08:46:57.301Z,49.01
2018-06-27T08:47:36.872Z,49.45
2018-06-27T08:56:28.322Z,51.22
2018-06-27T08:57:20.420Z,51.80
2018-06-27T09:02:56.970Z,52.90
2018-06-27T09:03:45.662Z,53.31
2018-06-27T09:05:43.527Z,53.57
2018-06-27T09:08:55.929Z,53.03
2018-06-27T09:09:55.885Z,53.40
2018-06-27T09:10:55.912Z,53.61
2018-06-27T09:11:55.891Z,53.42
2018-06-27T09:12:55.928Z,53.38
2018-06-27T09:13:55.963Z,53.38
2018-06-27T09:14:55.804Z,53.42
2018-06-27T09:15:56.446Z,53.54
2018-06-27T09:16:55.754Z,53.78
2018-06-27T09:17:55.995Z,53.99
2018-06-27T09:18:56.448Z,53.74
2018-06-27T09:19:56.605Z,54.19
2018-06-27T09:20:55.978Z,54.30
2018-06-27T09:21:57.081Z,54.46
2018-06-27T09:22:55.984Z,54.79
2018-06-27T09:23:56.038Z,54.82
2018-06-27T09:24:56.107Z,54.65
2018-06-27T09:25:56.074Z,54.79
2018-06-27T09:26:55.945Z,54.42
2018-06-27T09:27:56.032Z,54.91
2018-06-27T09:28:56.123Z,55.24
2018-06-27T09:29:56.059Z,55.51
2018-06-27T09:30:56.120Z,55.61
2018-06-27T09:31:56.094Z,55.64
2018-06-27T09:34:49.034Z,54.79
2018-06-27T09:35:48.843Z,54.69
2018-06-27T09:41:50.942Z,53.88
2018-06-27T09:42:48.861Z,53.93
2018-06-27T09:43:49.915Z,54.24
2018-06-27T09:45:48.915Z,54.43
2018-06-27T09:46:48.813Z,54.31
2018-06-27T09:47:48.958Z,54.46
2018-06-27T09:48:48.925Z,54.42
2018-06-27T09:49:48.933Z,54.67
2018-06-27T09:50:49.793Z,54.93
2018-06-27T09:51:48.904Z,54.52
2018-06-27T09:52:48.900Z,54.81
2018-06-27T09:53:51.814Z,54.82
2018-06-27T09:54:49.828Z,54.93
2018-06-27T09:55:48.982Z,54.66
2018-06-27T09:56:49.947Z,54.14
2018-06-27T09:57:48.968Z,54.58
2018-06-27T09:58:50.649Z,54.39
2018-06-27T09:59:48.970Z,54.81
2018-06-27T10:00:48.917Z,54.55
2018-06-27T10:01:49.836Z,54.50
2018-06-27T10:02:49.814Z,54.72
2018-06-27T10:05:42.008Z,54.81
2018-06-27T10:06:42.510Z,54.86
2018-06-27T10:07:40.722Z,55.04
2018-06-27T10:08:40.785Z,54.39
2018-06-27T10:09:41.375Z,54.20
2018-06-27T10:10:40.764Z,54.08
2018-06-27T10:11:40.695Z,54.16
2018-06-27T10:12:40.764Z,54.23
2018-06-27T10:13:40.906Z,54.16
2018-06-27T10:14:41.557Z,54.27
2018-06-27T10:15:40.776Z,54.20
2018-06-27T10:16:40.950Z,54.21
2018-06-27T10:17:45.438Z,54.53
2018-06-27T10:18:40.839Z,54.62
2018-06-27T10:19:40.907Z,54.82
2018-06-27T10:20:40.694Z,54.39
2018-06-27T10:21:40.888Z,54.78
2018-06-27T10:22:42.416Z,54.79
2018-06-27T10:23:43.402Z,54.82
2018-06-27T10:24:40.836Z,54.81
2018-06-27T10:25:40.947Z,55.05
2018-06-27T10:26:41.882Z,54.21
2018-06-27T10:27:41.950Z,53.97
2018-06-27T10:28:41.049Z,53.00
2018-06-27T10:29:40.966Z,52.11
2018-06-27T10:30:41.999Z,51.62
2018-06-27T10:31:41.101Z,51.50
2018-06-27T10:32:41.081Z,51.16
2018-06-27T10:33:41.197Z,50.94
2018-06-27T10:34:41.103Z,50.74
2018-06-27T10:35:42.061Z,51.01
2018-06-27T10:37:41.184Z,51.47
2018-06-27T10:38:41.997Z,49.73
2018-06-27T10:39:42.280Z,48.25
2018-06-27T10:40:42.071Z,46.95
2018-06-27T10:41:41.219Z,46.10
2018-06-27T10:42:41.271Z,45.10
2018-06-27T10:43:41.322Z,44.36
2018-06-27T10:45:41.279Z,42.86
2018-06-27T10:47:41.284Z,41.71
2018-06-27T10:50:02.329Z,40.61
2018-06-27T10:50:41.799Z,40.33
2018-06-27T10:51:46.051Z,39.81
2018-06-27T10:56:09.587Z,38.83
2018-06-27T10:58:52.902Z,37.97
2018-06-27T11:01:41.810Z,37.06
2018-06-27T11:03:50.475Z,36.73
2018-06-27T11:07:03.802Z,36.72
2018-06-27T11:10:47.807Z,36.65
2018-06-27T11:15:01.507Z,36.67
2018-06-27T11:17:06.366Z,37.37
2018-06-27T11:25:41.219Z,41.03
2018-06-27T11:28:45.967Z,41.50
2018-06-27T11:31:28.372Z,42.53
2018-06-27T11:31:49.190Z,42.94
2018-06-27T11:33:44.590Z,45.82
2018-06-27T11:34:43.188Z,46.99
2018-06-27T11:37:36.364Z,49.80
2018-06-27T11:39:30.063Z,50.78
2018-06-27T11:43:23.479Z,52.59
2018-06-27T11:45:17.878Z,52.68
2018-06-27T11:46:16.924Z,51.83
2018-06-27T11:48:10.229Z,50.84
2018-06-27T11:49:09.704Z,51.25
2018-06-27T11:51:02.722Z,52.09
2018-06-27T11:52:02.803Z,52.62
2018-06-27T11:53:59.067Z,53.45
2018-06-27T11:54:56.057Z,53.95
2018-06-27T11:56:50.442Z,54.33
2018-06-27T11:57:49.475Z,54.40
2018-06-27T11:58:50.014Z,54.20
2018-06-27T11:59:49.460Z,54.08
2018-06-27T12:00:51.040Z,54.07
2018-06-27T12:01:49.488Z,53.95
2018-06-27T12:02:49.483Z,54.20
2018-06-27T12:03:49.454Z,54.34
2018-06-27T12:04:51.418Z,54.94
2018-06-27T12:05:49.658Z,55.05
2018-06-27T12:06:49.478Z,54.63
2018-06-27T12:07:49.427Z,54.50
2018-06-27T12:08:49.549Z,54.04
2018-06-27T12:09:49.547Z,54.39
2018-06-27T12:10:49.612Z,54.52
2018-06-27T12:11:49.580Z,54.85
2018-06-27T12:12:49.668Z,55.22
2018-06-27T12:13:49.653Z,55.64
2018-06-27T12:14:49.579Z,55.96
2018-06-27T12:15:49.640Z,55.27
2018-06-27T12:16:49.661Z,54.58
2018-06-27T12:17:49.631Z,53.36
2018-06-27T12:18:49.728Z,53.19
2018-06-27T12:19:49.613Z,52.87
2018-06-27T12:20:49.668Z,52.49
2018-06-27T12:21:49.648Z,52.59
2018-06-27T12:22:49.800Z,52.55
2018-06-27T12:23:49.844Z,52.30
2018-06-27T12:24:49.885Z,52.69
2018-06-27T12:25:49.709Z,52.47
2018-06-27T12:26:49.743Z,52.42
2018-06-27T12:27:49.894Z,51.96
2018-06-27T12:28:49.804Z,52.20
2018-06-27T12:29:50.000Z,52.27
2018-06-27T12:30:49.823Z,52.25
2018-06-27T12:32:49.877Z,51.39
2018-06-27T12:33:49.863Z,51.38
2018-06-27T12:34:50.057Z,51.54
2018-06-27T12:35:50.010Z,51.57
2018-06-27T12:36:49.898Z,52.11
2018-06-27T12:37:50.081Z,52.39
2018-06-27T12:38:50.060Z,51.27
2018-06-27T12:39:49.983Z,50.78
2018-06-27T12:40:50.013Z,51.31
2018-06-27T12:41:50.031Z,50.59
2018-06-27T12:42:51.000Z,50.16
2018-06-27T12:43:49.985Z,49.63
2018-06-27T12:44:50.952Z,49.13
2018-06-27T12:45:50.271Z,48.31
2018-06-27T12:46:50.168Z,48.52
2018-06-27T12:47:50.244Z,48.15
2018-06-27T12:48:50.187Z,47.49
2018-06-27T12:49:50.391Z,47.42
2018-06-27T12:50:50.153Z,47.50
2018-06-27T12:51:50.247Z,48.24
2018-06-27T12:52:50.287Z,48.91
2018-06-27T12:53:50.280Z,49.54
2018-06-27T12:54:50.187Z,49.71
2018-06-27T12:55:50.133Z,50.26
2018-06-27T12:56:50.239Z,50.84
2018-06-27T12:57:50.030Z,50.78
2018-06-27T12:58:51.031Z,51.03
2018-06-27T12:59:50.164Z,51.05
2018-06-27T13:00:50.076Z,51.09
2018-06-27T13:01:50.116Z,51.55
2018-06-27T13:02:50.147Z,52.25
2018-06-27T13:03:50.203Z,52.52
2018-06-27T13:04:50.124Z,52.90
2018-06-27T13:05:50.906Z,52.90
2018-06-27T13:06:50.257Z,53.13
2018-06-27T13:07:50.214Z,52.50
2018-06-27T13:08:50.187Z,52.93
2018-06-27T13:09:50.297Z,53.32
2018-06-27T13:10:50.243Z,53.64
2018-06-27T13:11:50.215Z,53.29
2018-06-27T13:12:50.942Z,53.48
2018-06-27T13:13:50.344Z,53.03
2018-06-27T13:14:50.334Z,53.31
2018-06-27T13:15:50.344Z,53.58
2018-06-27T13:16:50.317Z,53.59
2018-06-27T13:17:50.437Z,53.16
2018-06-27T13:18:50.377Z,52.61
2018-06-27T13:19:50.333Z,52.25
2018-06-27T13:20:50.334Z,51.97
2018-06-27T13:21:50.434Z,51.96
2018-06-27T13:22:50.930Z,50.48
2018-06-27T13:23:50.507Z,49.89
2018-06-27T13:24:51.407Z,49.89
2018-06-27T13:25:51.400Z,49.93
2018-06-27T13:26:50.565Z,49.95
2018-06-27T13:27:50.582Z,50.23
2018-06-27T13:28:50.480Z,50.55
2018-06-27T13:29:50.519Z,50.98
2018-06-27T13:30:50.475Z,51.31
2018-06-27T13:31:50.614Z,51.08
2018-06-27T13:32:50.550Z,51.13
2018-06-27T13:33:50.579Z,51.35
2018-06-27T13:34:50.517Z,51.51
2018-06-27T13:35:50.605Z,51.65
2018-06-27T13:36:50.545Z,51.92
2018-06-27T13:37:50.706Z,52.15
2018-06-27T13:38:50.696Z,52.08
2018-06-27T13:39:50.635Z,52.01
2018-06-27T13:40:52.372Z,51.93
2018-06-27T13:41:50.597Z,51.58
2018-06-27T13:42:50.736Z,51.12
2018-06-27T13:43:50.741Z,50.62
2018-06-27T13:44:50.846Z,50.31
2018-06-27T13:45:50.763Z,50.05
2018-06-27T13:46:50.721Z,49.93
2018-06-27T13:47:50.679Z,49.95
2018-06-27T13:49:52.562Z,49.90
2018-06-27T13:50:50.888Z,49.75
2018-06-27T13:51:51.463Z,49.70
2018-06-27T13:52:50.838Z,49.67
2018-06-27T13:53:50.942Z,49.18
2018-06-27T13:54:50.869Z,48.36
2018-06-27T13:55:50.819Z,48.45
2018-06-27T13:56:50.772Z,48.38
2018-06-27T13:57:51.049Z,48.21
2018-06-27T13:58:50.979Z,48.09
2018-06-27T13:59:50.920Z,48.06
2018-06-27T14:00:51.042Z,47.99
2018-06-27T14:01:51.000Z,48.06
2018-06-27T14:02:51.220Z,47.96
2018-06-27T14:03:51.161Z,47.96
2018-06-27T14:04:51.168Z,48.00
2018-06-27T14:05:51.572Z,48.03
2018-06-27T14:06:51.146Z,48.07
2018-06-27T14:07:51.029Z,48.03
2018-06-27T14:08:51.113Z,48.02
2018-06-27T14:09:51.047Z,47.95
2018-06-27T14:10:52.030Z,47.80
2018-06-27T14:11:51.187Z,47.52
2018-06-27T14:12:51.148Z,47.30
2018-06-27T14:13:51.144Z,46.72
2018-06-27T14:14:51.214Z,46.13
2018-06-27T14:15:55.196Z,46.00
2018-06-27T14:16:51.296Z,46.29
2018-06-27T14:17:51.199Z,46.36
2018-06-27T14:18:51.266Z,46.27
2018-06-27T14:19:51.232Z,46.26
2018-06-27T14:20:51.341Z,46.50
2018-06-27T14:21:52.052Z,46.72
2018-06-27T14:22:51.301Z,46.95
2018-06-27T14:23:51.477Z,47.23
2018-06-27T14:24:53.017Z,47.59
2018-06-27T14:25:51.486Z,47.72
2018-06-27T14:26:51.282Z,47.52
2018-06-27T14:27:51.948Z,47.65
2018-06-27T14:28:51.257Z,47.87
2018-06-27T14:29:51.214Z,47.91
2018-06-27T14:30:51.297Z,47.87
2018-06-27T14:31:51.376Z,47.87
2018-06-27T14:32:51.931Z,47.91
2018-06-27T14:33:51.319Z,48.26
2018-06-27T14:34:51.310Z,48.19
2018-06-27T14:35:51.370Z,48.28
2018-06-27T14:36:51.338Z,48.19
2018-06-27T14:37:51.549Z,48.21
2018-06-27T14:38:51.357Z,48.12
2018-06-27T14:39:51.638Z,48.09
2018-06-27T14:40:51.311Z,47.75
2018-06-27T14:41:51.603Z,47.32
2018-06-27T14:42:51.431Z,47.22
2018-06-27T14:43:52.055Z,47.14
2018-06-27T14:44:53.159Z,46.95
2018-06-27T14:45:51.441Z,46.53
2018-06-27T14:46:51.542Z,46.32
2018-06-27T14:47:51.648Z,46.19
2018-06-27T14:48:51.620Z,45.97
2018-06-27T14:49:52.321Z,45.70
2018-06-27T14:50:52.246Z,45.09
2018-06-27T14:51:52.189Z,44.44
2018-06-27T14:52:52.289Z,43.72
2018-06-27T14:53:54.354Z,42.73
2018-06-27T14:54:53.389Z,41.99
2018-06-27T14:56:51.726Z,40.59
2018-06-27T14:57:52.372Z,39.74
2018-06-27T14:58:53.363Z,38.97
2018-06-27T14:59:53.362Z,38.33
2018-06-27T15:00:51.888Z,37.64
2018-06-27T15:03:51.771Z,36.08
2018-06-27T15:05:14.356Z,35.58
2018-06-27T15:05:58.340Z,35.17
2018-06-27T15:06:52.383Z,34.86
2018-06-27T15:08:02.310Z,34.47
2018-06-27T15:08:52.876Z,34.06
2018-06-27T15:10:52.471Z,33.68
2018-06-27T15:11:51.875Z,33.36
2018-06-27T15:13:14.364Z,33.14
2018-06-27T15:13:51.841Z,32.96
2018-06-27T15:14:53.419Z,32.85
2018-06-27T15:16:13.799Z,32.60
2018-06-27T15:16:52.544Z,32.63
2018-06-27T15:17:56.333Z,32.46
2018-06-27T15:18:52.364Z,32.34
2018-06-27T15:20:12.888Z,32.09
2018-06-27T15:20:51.794Z,32.00
2018-06-27T15:21:54.366Z,32.00
2018-06-27T15:22:56.286Z,31.78
2018-06-27T15:23:51.849Z,31.52
2018-06-27T15:25:15.357Z,31.61
2018-06-27T15:27:20.369Z,31.39
2018-06-27T15:27:51.789Z,31.17
2018-06-27T15:29:14.305Z,31.14
2018-06-27T15:29:52.351Z,31.06
2018-06-27T15:31:14.354Z,31.05
2018-06-27T15:32:12.833Z,30.90
2018-06-27T15:32:51.848Z,30.91
2018-06-27T15:33:51.859Z,30.91
2018-06-27T15:35:12.782Z,30.90
2018-06-27T15:35:51.802Z,30.73
2018-06-27T15:37:51.838Z,30.55
2018-06-27T15:38:52.766Z,30.72
2018-06-27T15:39:51.798Z,30.73
2018-06-27T15:40:56.238Z,30.57
2018-06-27T15:41:51.740Z,30.68
2018-06-27T15:42:52.383Z,30.53
2018-06-27T15:43:51.800Z,30.63
2018-06-27T15:45:58.404Z,30.57
2018-06-27T15:46:52.396Z,30.63
2018-06-27T15:47:51.762Z,30.75
2018-06-27T15:48:51.715Z,30.65
2018-06-27T15:50:52.375Z,30.69
2018-06-27T15:51:51.811Z,30.61
2018-06-27T15:52:51.806Z,30.51
2018-06-27T15:53:52.361Z,30.51
2018-06-27T15:54:56.307Z,30.54
2018-06-27T15:55:54.403Z,30.54
2018-06-27T15:56:51.740Z,30.47
2018-06-27T15:57:52.295Z,30.51
2018-06-27T15:59:02.388Z,30.40
2018-06-27T15:59:53.337Z,30.30
2018-06-27T16:00:53.323Z,30.21
2018-06-27T16:01:54.347Z,30.13
2018-06-27T16:04:34.844Z,30.18
2018-06-27T16:07:17.744Z,29.98
2018-06-27T16:08:17.752Z,30.00
2018-06-27T16:10:13.553Z,30.19
2018-06-27T16:11:10.629Z,30.18
2018-06-27T16:13:04.091Z,30.03
2018-06-27T16:14:04.492Z,30.00
2018-06-27T16:16:10.477Z,30.02
2018-06-27T16:17:10.016Z,30.05
2018-06-27T16:21:04.148Z,29.98
2018-06-27T16:23:18.148Z,29.90
2018-06-27T16:23:35.598Z,29.90
2018-06-27T16:26:08.013Z,29.71
2018-06-27T16:27:56.677Z,29.49
2018-06-27T16:28:54.846Z,29.32
2018-06-27T16:29:54.914Z,29.27
2018-06-27T16:30:54.828Z,29.23
2018-06-27T16:31:54.878Z,29.16
2018-06-27T16:33:02.965Z,29.14
2018-06-27T16:34:56.302Z,28.98
2018-06-27T16:35:49.812Z,28.84
2018-06-27T16:37:41.707Z,28.78
2018-06-27T16:40:38.638Z,28.70
2018-06-27T16:41:35.848Z,28.70
2018-06-27T16:43:29.979Z,28.63
2018-06-27T16:46:29.614Z,28.38
2018-06-27T16:47:21.879Z,28.37
2018-06-27T16:49:14.864Z,28.29
2018-06-27T16:50:14.877Z,28.29
2018-06-27T16:51:14.749Z,28.14
2018-06-27T16:52:14.765Z,28.17
2018-06-27T16:53:14.599Z,28.26
2018-06-27T16:55:14.778Z,28.15
2018-06-27T16:56:14.719Z,28.12
2018-06-27T16:57:14.737Z,28.08
2018-06-27T16:58:14.736Z,28.10
2018-06-27T16:59:14.757Z,28.05
2018-06-27T17:00:14.715Z,28.04
2018-06-27T17:01:14.713Z,28.01
2018-06-27T17:02:14.723Z,27.95
2018-06-27T17:03:14.696Z,27.92
2018-06-27T17:04:14.835Z,27.95
2018-06-27T17:05:14.636Z,27.86
2018-06-27T17:06:16.379Z,27.75
2018-06-27T17:07:14.691Z,27.68
2018-06-27T17:08:14.638Z,27.67
2018-06-27T17:09:14.812Z,27.60
2018-06-27T17:10:14.659Z,27.60
2018-06-27T17:11:14.634Z,27.52
2018-06-27T17:12:14.691Z,27.45
2018-06-27T17:13:14.758Z,27.44
2018-06-27T17:14:14.651Z,27.40
2018-06-27T17:15:14.491Z,27.35
2018-06-27T17:16:15.254Z,27.33
2018-06-27T17:17:14.644Z,27.30
2018-06-27T17:18:14.622Z,27.30
2018-06-27T17:19:14.649Z,27.32
2018-06-27T17:20:14.511Z,27.32
2018-06-27T17:21:14.532Z,27.30
2018-06-27T17:22:17.485Z,27.27
2018-06-27T17:23:14.637Z,27.29
2018-06-27T17:24:14.669Z,27.25
2018-06-27T17:25:14.625Z,27.33
2018-06-27T17:26:14.572Z,27.29
2018-06-27T17:28:14.687Z,27.12
2018-06-27T17:29:14.643Z,27.00
2018-06-27T17:30:14.585Z,26.95
2018-06-27T17:31:16.450Z,26.88
2018-06-27T17:32:14.530Z,26.85
2018-06-27T17:33:14.442Z,26.81
2018-06-27T17:34:14.619Z,26.73
2018-06-27T17:35:14.606Z,26.70
2018-06-27T17:36:14.675Z,26.78
2018-06-27T17:37:14.605Z,26.66
2018-06-27T17:38:16.414Z,26.65
2018-06-27T17:39:14.468Z,26.62
2018-06-27T17:40:14.486Z,26.60
2018-06-27T17:41:16.346Z,26.62
2018-06-27T17:42:17.421Z,26.65
2018-06-27T17:43:14.589Z,26.68
2018-06-27T17:44:14.379Z,26.65
2018-06-27T17:45:14.544Z,26.63
2018-06-27T17:46:14.438Z,26.59
2018-06-27T17:47:14.600Z,26.48
2018-06-27T17:48:14.492Z,26.53
2018-06-27T17:49:14.534Z,26.47
2018-06-27T17:51:14.538Z,26.40
2018-06-27T17:52:14.356Z,26.31
2018-06-27T17:53:16.296Z,26.31
2018-06-27T17:54:14.481Z,26.23
2018-06-27T17:55:14.426Z,26.22
2018-06-27T17:56:14.485Z,26.16
2018-06-27T17:57:14.473Z,26.13
2018-06-27T17:58:17.436Z,26.19
2018-06-27T17:59:14.354Z,26.13
2018-06-27T18:00:14.480Z,26.13
2018-06-27T18:01:14.416Z,26.19
2018-06-27T18:02:14.465Z,26.13
2018-06-27T18:03:14.380Z,26.02
2018-06-27T18:04:16.399Z,26.10
2018-06-27T18:05:14.356Z,26.05
2018-06-27T18:06:14.370Z,26.03
2018-06-27T18:07:14.248Z,26.07
2018-06-27T18:08:14.302Z,25.98
2018-06-27T18:09:17.163Z,25.95
2018-06-27T18:10:14.453Z,25.78
2018-06-27T18:11:14.306Z,25.87
2018-06-27T18:12:14.404Z,25.83
2018-06-27T18:13:14.194Z,25.80
2018-06-27T18:14:14.360Z,25.80
2018-06-27T18:15:14.347Z,25.73
2018-06-27T18:16:14.194Z,25.77
2018-06-27T18:17:14.452Z,25.65
2018-06-27T18:18:14.282Z,25.58
2018-06-27T18:20:14.158Z,25.54
2018-06-27T18:21:14.123Z,25.54
2018-06-27T18:22:14.279Z,25.58
2018-06-27T18:23:14.187Z,25.55
2018-06-27T18:24:14.234Z,25.53
2018-06-27T18:25:14.423Z,25.38
2018-06-27T18:26:14.177Z,25.43
2018-06-27T18:27:16.758Z,25.32
2018-06-27T18:28:14.367Z,25.29
2018-06-27T18:29:14.191Z,25.38
2018-06-27T18:30:14.308Z,25.18
2018-06-27T18:31:14.265Z,25.26
2018-06-27T18:32:14.167Z,25.23
2018-06-27T18:33:14.211Z,25.23
2018-06-27T18:34:15.173Z,25.22
2018-06-27T18:35:17.761Z,25.11
2018-06-27T18:36:14.075Z,24.99
2018-06-27T18:37:14.159Z,25.10
2018-06-27T18:38:14.240Z,24.99
2018-06-27T18:39:14.120Z,24.88
2018-06-27T18:40:14.215Z,24.91
2018-06-27T18:41:15.951Z,24.89
2018-06-27T18:42:15.962Z,24.86
2018-06-27T18:43:14.215Z,24.81
2018-06-27T18:44:15.912Z,24.86
2018-06-27T18:45:14.017Z,24.84
2018-06-27T18:46:14.139Z,24.76
2018-06-27T18:47:16.916Z,24.69
2018-06-27T18:48:14.201Z,24.65
2018-06-27T18:49:14.143Z,24.55
2018-06-27T18:50:14.126Z,24.45
2018-06-27T18:51:13.980Z,24.39
2018-06-27T18:52:14.101Z,24.29
2018-06-27T18:53:14.089Z,24.33
2018-06-27T18:54:14.140Z,24.23
2018-06-27T18:55:14.183Z,24.16
2018-06-27T18:56:14.157Z,24.10
2018-06-27T18:57:14.208Z,24.13
2018-06-27T18:58:14.106Z,24.03
2018-06-27T18:59:14.071Z,23.98
2018-06-27T19:00:14.079Z,23.98
2018-06-27T19:01:14.028Z,23.91
2018-06-27T19:02:14.031Z,23.83
2018-06-27T19:03:14.048Z,23.86
2018-06-27T19:04:13.962Z,23.88
2018-06-27T19:05:13.994Z,23.78
2018-06-27T19:06:14.029Z,23.76
2018-06-27T19:07:13.824Z,23.74
2018-06-27T19:08:13.997Z,23.73
2018-06-27T19:09:15.739Z,23.61
2018-06-27T19:10:13.887Z,23.61
2018-06-27T19:11:13.989Z,23.55
2018-06-27T19:12:13.920Z,23.55
2018-06-27T19:13:14.013Z,23.48
2018-06-27T19:14:15.809Z,23.48
2018-06-27T19:15:14.011Z,23.44
2018-06-27T19:16:13.991Z,23.36
2018-06-27T19:17:13.893Z,23.37
2018-06-27T19:18:13.979Z,23.20
2018-06-27T19:19:13.858Z,23.28
2018-06-27T19:20:13.816Z,23.21
2018-06-27T19:21:13.863Z,23.18
2018-06-27T19:22:13.905Z,23.09
2018-06-27T19:23:13.794Z,23.02
2018-06-27T19:24:13.799Z,22.99
2018-06-27T19:25:13.938Z,22.99
2018-06-27T19:26:13.822Z,22.88
2018-06-27T19:27:13.970Z,22.85
2018-06-27T19:28:13.879Z,22.83
2018-06-27T19:29:13.833Z,22.72
2018-06-27T19:30:15.686Z,22.70
2018-06-27T19:31:13.770Z,22.66
2018-06-27T19:32:13.773Z,22.69
2018-06-27T19:33:14.010Z,22.62
2018-06-27T19:34:13.696Z,22.62
2018-06-27T19:35:13.800Z,22.48
2018-06-27T19:36:13.741Z,22.53
2018-06-27T19:37:13.766Z,22.45
2018-06-27T19:38:14.727Z,22.43
2018-06-27T19:39:13.814Z,22.36
2018-06-27T19:40:13.783Z,22.32
2018-06-27T19:41:13.928Z,22.36
2018-06-27T19:42:13.746Z,22.30
2018-06-27T19:43:13.647Z,22.28
2018-06-27T19:44:13.760Z,22.28
2018-06-27T19:45:13.659Z,22.29
2018-06-27T19:46:13.654Z,22.25
2018-06-27T19:47:13.611Z,22.22
2018-06-27T19:48:13.752Z,22.18
2018-06-27T19:49:13.609Z,22.11
2018-06-27T19:50:16.452Z,22.13
2018-06-27T19:51:15.347Z,22.07
2018-06-27T19:52:13.747Z,22.04
2018-06-27T19:53:13.716Z,21.91
2018-06-27T19:54:15.223Z,22.00
2018-06-27T19:55:13.700Z,21.98
2018-06-27T19:56:13.606Z,21.93
2018-06-27T19:57:15.534Z,21.85
2018-06-27T19:58:13.798Z,21.93
2018-06-27T19:59:13.537Z,21.82
2018-06-27T20:00:13.523Z,21.83
2018-06-27T20:01:13.646Z,21.75
2018-06-27T20:02:13.667Z,21.73
2018-06-27T20:03:13.492Z,21.76
2018-06-27T20:04:13.602Z,21.62
2018-06-27T20:05:13.559Z,21.67
2018-06-27T20:06:13.528Z,21.69
2018-06-27T20:07:13.827Z,21.61
2018-06-27T20:08:13.666Z,21.54
2018-06-27T20:09:15.448Z,21.62
2018-06-27T20:10:13.632Z,21.58
2018-06-27T20:11:13.592Z,21.52
2018-06-27T20:12:13.547Z,21.45
2018-06-27T20:13:13.488Z,21.40
2018-06-27T20:14:13.532Z,21.43
2018-06-27T20:15:13.690Z,21.45
2018-06-27T20:16:13.470Z,21.43
2018-06-27T20:17:13.584Z,21.36
2018-06-27T20:18:13.464Z,21.36
2018-06-27T20:19:13.594Z,21.24
2018-06-27T20:20:13.388Z,21.30
2018-06-27T20:21:13.512Z,21.25
2018-06-27T20:22:13.498Z,21.22
2018-06-27T20:23:13.390Z,21.24
2018-06-27T20:24:13.402Z,21.30
2018-06-27T20:25:16.281Z,21.27
2018-06-27T20:26:16.211Z,21.24
2018-06-27T20:27:13.567Z,21.27
2018-06-27T20:28:13.448Z,21.21
2018-06-27T20:29:15.293Z,21.17
2018-06-27T20:30:15.240Z,21.21
2018-06-27T20:31:13.511Z,21.18
2018-06-27T20:32:13.392Z,21.14
2018-06-27T20:33:13.512Z,21.03
2018-06-27T20:34:13.426Z,20.99
2018-06-27T20:35:13.398Z,21.00
2018-06-27T20:36:13.362Z,21.07
2018-06-27T20:37:13.458Z,21.03
2018-06-27T20:38:13.298Z,20.93
2018-06-27T20:39:13.347Z,20.96
2018-06-27T20:40:14.761Z,20.93
2018-06-27T20:41:13.309Z,20.99
2018-06-27T20:42:13.280Z,21.03
2018-06-27T20:43:13.248Z,20.97
2018-06-27T20:45:13.173Z,20.92
2018-06-27T20:46:14.913Z,20.82
2018-06-27T20:47:13.240Z,20.85
2018-06-27T20:48:13.210Z,20.84
2018-06-27T20:49:16.995Z,20.88
2018-06-27T20:50:13.335Z,20.85
2018-06-27T20:51:13.319Z,20.80
2018-06-27T20:52:13.242Z,20.80
2018-06-27T20:54:13.292Z,20.80
2018-06-27T20:55:13.245Z,20.81
2018-06-27T20:56:13.136Z,20.78
2018-06-27T20:57:13.243Z,20.67
2018-06-27T20:58:13.180Z,20.66